Time;durP1;ratioP1;P1;durP2;ratioP2;P2;SDS_P1;SDS_P2;PMS_P1;PMS_P2;Temp;Humidity;BMP_temperature;BMP_pressure;BME280_temperature;BME280_humidity;BME280_pressure;Samples;Min_cycle;Max_cycle;Signal;HPM_P1;HPM_P2
2023/04/01 00:00:19;;;;;;;5.18;1.38;;;;;;;8.08;100.00;96687.75;4160636;28;20434;-73
2023/04/01 00:02:20;;;;;;;2.45;1.02;;;;;;;8.05;100.00;96677.56;4160883;28;20064;-73
2023/04/01 00:04:20;;;;;;;3.28;1.20;;;;;;;8.03;100.00;96679.94;4165180;28;20057;-73
2023/04/01 00:06:21;;;;;;;2.15;1.10;;;;;;;8.04;100.00;96681.50;4163732;28;20053;-73
2023/04/01 00:08:22;;;;;;;4.53;1.58;;;;;;;8.05;100.00;96683.84;4160893;28;20033;-73
2023/04/01 00:10:23;;;;;;;1.70;1.25;;;;;;;8.04;100.00;96682.28;4164985;28;20036;-73
2023/04/01 00:12:24;;;;;;;3.13;0.98;;;;;;;8.05;100.00;96672.81;4161938;28;20430;-73
2023/04/01 00:14:25;;;;;;;3.22;1.30;;;;;;;8.09;100.00;96673.56;4159815;28;20463;-73
2023/04/01 00:16:25;;;;;;;2.00;1.20;;;;;;;8.10;100.00;96672.38;4161802;28;20059;-73
2023/04/01 00:18:26;;;;;;;4.25;1.10;;;;;;;8.09;100.00;96670.81;4161730;28;20044;-73
2023/04/01 00:20:27;;;;;;;3.40;1.20;;;;;;;8.09;100.00;96672.78;4161244;28;20459;-73
2023/04/01 00:22:27;;;;;;;3.65;1.15;;;;;;;8.10;100.00;96668.84;4160063;28;20385;-73
2023/04/01 00:24:27;;;;;;;2.03;1.05;;;;;;;8.08;100.00;96671.22;4167225;28;20057;-73
2023/04/01 00:26:28;;;;;;;4.57;1.63;;;;;;;8.14;100.00;96680.63;4163284;28;20033;-73
2023/04/01 00:28:29;;;;;;;4.10;1.25;;;;;;;8.18;100.00;96676.63;4159717;28;20053;-73
2023/04/01 00:30:29;;;;;;;3.85;1.45;;;;;;;8.16;100.00;96669.97;4161165;28;20042;-73
2023/04/01 00:32:30;;;;;;;4.75;1.80;;;;;;;8.14;100.00;96661.34;4161852;28;20545;-72
2023/04/01 00:34:30;;;;;;;2.42;1.15;;;;;;;8.20;100.00;96667.22;4160153;28;20045;-73
2023/04/01 00:36:31;;;;;;;1.20;1.00;;;;;;;8.24;100.00;96656.94;4167903;28;20079;-73
2023/04/01 00:38:31;;;;;;;3.83;1.15;;;;;;;8.24;100.00;96665.19;4160572;28;20041;-73
2023/04/01 00:40:37;;;;;;;2.88;1.08;;;;;;;8.19;100.00;96669.16;4161177;28;20425;-73
2023/04/01 00:42:38;;;;;;;2.00;0.90;;;;;;;8.20;100.00;96661.69;4165957;28;20048;-73
2023/04/01 00:44:38;;;;;;;1.67;1.17;;;;;;;8.16;100.00;96662.50;4166349;28;20037;-73
2023/04/01 00:46:38;;;;;;;2.95;1.13;;;;;;;8.15;100.00;96660.16;4160018;28;20041;-73
2023/04/01 00:48:50;;;;;;;1.67;0.73;;;;;;;8.16;100.00;96661.72;4159845;28;20481;-73
2023/04/01 00:50:56;;;;;;;3.83;1.30;;;;;;;8.14;100.00;96662.13;4160407;28;20068;-73
2023/04/01 00:52:59;;;;;;;2.67;1.15;;;;;;;8.13;100.00;96663.31;4160090;28;20115;-73
2023/04/01 00:55:02;;;;;;;2.22;1.00;;;;;;;8.08;100.00;96668.47;4160442;28;20478;-73
2023/04/01 00:57:09;;;;;;;2.58;1.20;;;;;;;8.14;100.00;96664.88;4162121;28;20045;-73
2023/04/01 00:59:23;;;;;;;2.40;0.90;;;;;;;8.15;100.00;96671.16;4159745;28;20034;-73
2023/04/01 01:01:24;;;;;;;3.83;1.30;;;;;;;8.09;100.00;96668.06;4161144;28;20041;-73
2023/04/01 01:03:25;;;;;;;1.58;1.10;;;;;;;8.08;100.00;96674.75;4163096;28;20881;-73
2023/04/01 01:05:46;;;;;;;2.15;1.10;;;;;;;8.08;100.00;96665.72;4160409;28;20041;-73
2023/04/01 01:08:23;;;;;;;1.48;0.90;;;;;;;8.16;100.00;96664.47;4160645;28;20041;-73
2023/04/01 01:10:29;;;;;;;2.65;1.30;;;;;;;8.09;100.00;96654.28;4160035;28;20045;-73
2023/04/01 01:12:42;;;;;;;1.80;0.90;;;;;;;8.06;100.00;96662.59;4159763;28;20055;-73
2023/04/01 01:15:07;;;;;;;2.72;0.80;;;;;;;8.04;100.00;96671.25;4161411;28;20053;-73
2023/04/01 01:17:28;;;;;;;1.88;0.82;;;;;;;8.08;100.00;96674.75;4160136;28;20124;-73
2023/04/01 01:19:48;;;;;;;1.98;1.00;;;;;;;8.08;100.00;96671.22;4161149;28;20091;-73
2023/04/01 01:21:50;;;;;;;1.40;0.90;;;;;;;8.08;100.00;96669.25;4160111;28;20041;-73
2023/04/01 01:24:12;;;;;;;1.30;0.80;;;;;;;8.06;100.00;96670.84;4159788;28;20051;-73
2023/04/01 01:26:44;;;;;;;3.45;1.10;;;;;;;8.08;100.00;96665.72;4159767;28;20099;-73
2023/04/01 01:28:55;;;;;;;4.00;1.00;;;;;;;8.11;100.00;96659.41;4160389;28;20048;-73
2023/04/01 01:31:05;;;;;;;5.28;1.17;;;;;;;8.12;100.00;96669.22;4159903;28;20151;-73
2023/04/01 01:33:25;;;;;;;4.20;1.20;;;;;;;8.08;100.00;96654.69;4163054;28;20107;-73
2023/04/01 01:35:28;;;;;;;1.98;1.10;;;;;;;8.11;100.00;96664.91;4162376;28;20140;-73
2023/04/01 01:37:31;;;;;;;2.78;1.20;;;;;;;8.06;100.00;96662.59;4161928;28;20041;-73
2023/04/01 01:39:34;;;;;;;3.08;0.95;;;;;;;8.02;100.00;96662.59;4160244;28;20043;-73
2023/04/01 01:41:38;;;;;;;3.20;1.08;;;;;;;8.06;100.00;96662.59;4159947;28;20148;-73
2023/04/01 01:43:43;;;;;;;2.53;1.10;;;;;;;8.00;100.00;96653.97;4159119;28;20112;-73
2023/04/01 01:45:48;;;;;;;2.22;0.98;;;;;;;8.00;100.00;96669.72;4160514;28;20048;-73
2023/04/01 01:47:50;;;;;;;2.58;0.90;;;;;;;7.97;100.00;96665.81;4159646;28;20057;-73
2023/04/01 01:49:52;;;;;;;1.77;0.90;;;;;;;8.04;100.00;96664.97;4159311;28;20116;-73
2023/04/01 01:51:53;;;;;;;1.38;0.88;;;;;;;8.00;100.00;96659.47;4159988;28;20052;-73
2023/04/01 01:53:54;;;;;;;1.38;0.95;;;;;;;7.99;100.00;96671.69;4158488;28;20057;-73
2023/04/01 01:55:54;;;;;;;3.60;1.98;;;;;;;8.00;100.00;96661.44;4160397;28;20048;-73
2023/04/01 01:57:57;;;;;;;2.38;1.50;;;;;;;8.03;100.00;96668.91;4159929;28;20041;-73
2023/04/01 02:00:13;;;;;;;2.95;0.90;;;;;;;7.96;100.00;96672.50;4159000;28;20045;-73
2023/04/01 02:02:15;;;;;;;1.58;0.80;;;;;;;7.94;100.00;96665.81;4159210;28;20077;-73
2023/04/01 02:04:17;;;;;;;0.93;0.80;;;;;;;7.94;100.00;96671.31;4162934;28;20109;-73
2023/04/01 02:06:21;;;;;;;3.15;0.90;;;;;;;7.99;100.00;96670.91;4159072;28;20454;-73
2023/04/01 02:08:34;;;;;;;1.23;1.00;;;;;;;7.99;100.00;96668.16;4160469;28;20053;-73
2023/04/01 02:10:39;;;;;;;1.25;0.80;;;;;;;7.96;100.00;96667.00;4163124;28;20030;-73
2023/04/01 02:12:43;;;;;;;0.82;0.80;;;;;;;7.94;100.00;96669.34;4158968;28;20068;-73
2023/04/01 02:15:09;;;;;;;2.00;0.90;;;;;;;7.92;100.00;96668.97;4159063;28;20048;-73
2023/04/01 02:17:22;;;;;;;5.10;1.58;;;;;;;7.88;100.00;96658.00;4159066;28;20049;-73
2023/04/01 02:19:27;;;;;;;3.92;1.05;;;;;;;7.92;100.00;96666.22;4160455;28;20052;-73
2023/04/01 02:21:32;;;;;;;1.48;0.98;;;;;;;7.93;100.00;96665.03;4164040;28;20084;-73
2023/04/01 02:23:37;;;;;;;0.68;0.65;;;;;;;7.94;100.00;96652.03;4158691;28;20494;-73
2023/04/01 02:25:39;;;;;;;3.97;0.88;;;;;;;7.89;100.00;96661.53;4164558;28;20132;-73
2023/04/01 02:27:43;;;;;;;2.40;0.98;;;;;;;7.90;100.00;96654.84;4160359;28;20118;-73
2023/04/01 02:29:44;;;;;;;2.30;0.90;;;;;;;7.86;100.00;96654.06;4159757;28;20612;-73
2023/04/01 02:31:45;;;;;;;0.80;0.77;;;;;;;7.84;100.00;96665.47;4160418;28;20123;-73
2023/04/01 02:33:46;;;;;;;0.95;0.77;;;;;;;7.78;100.00;96667.13;4162011;28;20087;-73
2023/04/01 02:35:47;;;;;;;3.17;1.52;;;;;;;7.79;100.00;96663.19;4159390;28;20462;-73
2023/04/01 02:37:49;;;;;;;2.80;0.90;;;;;;;7.83;100.00;96668.66;4161416;28;20048;-73
2023/04/01 02:39:49;;;;;;;2.33;0.73;;;;;;;7.81;100.00;96669.06;4159361;28;20072;-73
2023/04/01 02:41:50;;;;;;;1.38;0.85;;;;;;;7.81;100.00;96663.53;4159608;28;20041;-73
2023/04/01 02:43:50;;;;;;;2.30;0.80;;;;;;;7.79;100.00;96660.41;4157727;28;20144;-73
2023/04/01 02:45:51;;;;;;;1.05;0.70;;;;;;;7.80;100.00;96673.00;4161339;28;20842;-73
2023/04/01 02:47:51;;;;;;;1.45;0.82;;;;;;;7.82;100.00;96667.84;4161397;28;20148;-73
2023/04/01 02:49:57;;;;;;;2.15;0.95;;;;;;;7.79;100.00;96674.19;4159074;28;20049;-73
2023/04/01 02:51:57;;;;;;;1.02;0.90;;;;;;;7.79;100.00;96674.19;4158708;28;20381;-73
2023/04/01 02:53:58;;;;;;;1.90;0.88;;;;;;;7.79;100.00;96676.94;4158782;28;20048;-73
2023/04/01 02:55:58;;;;;;;3.72;0.98;;;;;;;7.78;100.00;96672.63;4160888;28;20094;-73
2023/04/01 02:57:59;;;;;;;1.40;0.77;;;;;;;7.76;100.00;96672.22;4158167;28;20397;-73
2023/04/01 03:00:00;;;;;;;0.70;0.70;;;;;;;7.75;100.00;96678.91;4158946;28;20044;-73
2023/04/01 03:02:00;;;;;;;2.40;0.88;;;;;;;7.76;100.00;96680.47;4162708;28;20125;-73
2023/04/01 03:04:00;;;;;;;1.13;0.90;;;;;;;7.74;100.00;96682.84;4158935;28;20426;-73
2023/04/01 03:06:13;;;;;;;1.08;0.80;;;;;;;7.74;100.00;96679.31;4159608;28;20054;-73
2023/04/01 03:08:13;;;;;;;1.63;0.90;;;;;;;7.73;100.00;96670.28;4161981;28;20045;-73
2023/04/01 03:10:14;;;;;;;1.30;0.98;;;;;;;7.79;100.00;96676.16;4160792;28;20466;-73
2023/04/01 03:12:14;;;;;;;1.20;0.70;;;;;;;7.79;100.00;96676.94;4161887;28;20434;-73
2023/04/01 03:14:15;;;;;;;1.42;0.70;;;;;;;7.84;100.00;96670.22;4161578;28;20025;-73
2023/04/01 03:16:15;;;;;;;1.85;0.90;;;;;;;7.77;100.00;96681.25;4163615;28;20061;-73
2023/04/01 03:18:15;;;;;;;1.90;0.90;;;;;;;7.73;100.00;96669.50;4161316;28;20044;-73
2023/04/01 03:20:16;;;;;;;1.50;0.90;;;;;;;7.66;100.00;96677.81;4161501;28;20064;-73
2023/04/01 03:22:16;;;;;;;1.60;0.90;;;;;;;7.65;100.00;96674.25;4161981;28;20057;-73
2023/04/01 03:24:16;;;;;;;1.35;1.00;;;;;;;7.68;100.00;96681.72;4160803;28;20049;-73
2023/04/01 03:26:17;;;;;;;1.67;0.90;;;;;;;7.61;100.00;96676.25;4162558;28;20036;-73
2023/04/01 03:28:18;;;;;;;2.92;1.10;;;;;;;7.58;100.00;96677.06;4162804;28;20083;-73
2023/04/01 03:30:18;;;;;;;2.47;0.80;;;;;;;7.56;100.00;96680.22;4160985;28;20033;-73
2023/04/01 03:32:19;;;;;;;1.15;1.02;;;;;;;7.49;100.00;96668.47;4161521;28;20409;-73
2023/04/01 03:34:19;;;;;;;1.30;0.80;;;;;;;7.46;100.00;96674.78;4160905;28;20087;-73
2023/04/01 03:36:20;;;;;;;1.63;0.82;;;;;;;7.48;100.00;96677.91;4162259;28;20374;-73
2023/04/01 03:38:20;;;;;;;1.73;0.80;;;;;;;7.49;100.00;96674.75;4161272;28;20034;-73
2023/04/01 03:40:21;;;;;;;1.17;0.98;;;;;;;7.48;100.00;96675.94;4162066;28;20065;-73
2023/04/01 03:42:22;;;;;;;0.90;0.80;;;;;;;7.50;100.00;96679.06;4162200;28;20446;-73
2023/04/01 03:44:22;;;;;;;3.75;1.00;;;;;;;7.48;100.00;96684.19;4161210;28;20175;-73
2023/04/01 03:46:22;;;;;;;1.25;0.80;;;;;;;7.48;100.00;96688.91;4162069;28;20063;-73
2023/04/01 03:48:23;;;;;;;1.88;0.90;;;;;;;7.46;100.00;96677.53;4161555;28;20430;-73
2023/04/01 03:50:23;;;;;;;2.75;0.80;;;;;;;7.43;100.00;96681.06;4161539;28;20044;-73
2023/04/01 03:52:23;;;;;;;3.10;1.15;;;;;;;7.42;100.00;96691.28;4160806;28;20036;-73
2023/04/01 03:54:24;;;;;;;4.10;1.00;;;;;;;7.44;100.00;96682.63;4161629;28;20156;-73
2023/04/01 03:56:24;;;;;;;2.10;0.93;;;;;;;7.50;100.00;96697.53;4162639;28;20052;-73
2023/04/01 03:58:25;;;;;;;1.20;0.80;;;;;;;7.49;100.00;96699.50;4160293;28;20651;-73
2023/04/01 04:00:27;;;;;;;1.77;0.82;;;;;;;7.47;100.00;96698.34;4160554;28;20458;-73
2023/04/01 04:02:27;;;;;;;;;;;;;;;7.47;100.00;96695.59;4161852;28;20060;-73
2023/04/01 04:04:28;;;;;;;1.38;1.05;;;;;;;7.42;100.00;96685.78;4160136;28;19917;-73
2023/04/01 04:06:29;;;;;;;1.75;0.90;;;;;;;7.47;100.00;96693.63;4162236;28;20094;-73
2023/04/01 04:08:29;;;;;;;1.27;0.88;;;;;;;7.48;100.00;96697.16;4161760;28;20072;-73
2023/04/01 04:10:30;;;;;;;0.95;0.90;;;;;;;7.47;100.00;96688.13;4162626;28;20485;-73
2023/04/01 04:12:30;;;;;;;1.27;0.60;;;;;;;7.51;100.00;96696.34;4159590;28;20092;-73
2023/04/01 04:14:30;;;;;;;1.75;1.17;;;;;;;7.48;100.00;96691.66;4161376;28;20045;-73
2023/04/01 04:16:31;;;;;;;2.67;0.90;;;;;;;7.47;100.00;96695.59;4163143;28;20520;-73
2023/04/01 04:18:31;;;;;;;2.65;0.90;;;;;;;7.45;100.00;96695.22;4160327;28;20187;-73
2023/04/01 04:20:31;;;;;;;2.90;1.00;;;;;;;7.45;100.00;96690.50;4160662;28;20042;-73
2023/04/01 04:22:32;;;;;;;2.53;0.90;;;;;;;7.42;100.00;96699.53;4160470;28;20133;-73
2023/04/01 04:24:34;;;;;;;1.42;0.95;;;;;;;7.43;100.00;96694.81;4160573;28;20034;-73
2023/04/01 04:26:34;;;;;;;1.42;0.80;;;;;;;7.39;100.00;96699.56;4162854;28;20474;-73
2023/04/01 04:28:35;;;;;;;2.78;1.30;;;;;;;7.43;100.00;96698.34;4167411;28;20094;-73
2023/04/01 04:30:35;;;;;;;3.72;1.00;;;;;;;7.39;100.00;96702.31;4161174;28;20045;-73
2023/04/01 04:32:35;;;;;;;2.22;0.80;;;;;;;7.46;100.00;96702.28;4159138;28;20041;-73
2023/04/01 04:34:36;;;;;;;1.58;0.80;;;;;;;7.54;100.00;96706.56;4161214;28;20420;-73
2023/04/01 04:36:36;;;;;;;1.08;0.80;;;;;;;7.55;100.00;96708.13;4165182;28;20133;-73
2023/04/01 04:38:36;;;;;;;1.95;1.10;;;;;;;7.51;100.00;96710.91;4160345;28;20413;-73
2023/04/01 04:40:38;;;;;;;2.63;0.90;;;;;;;7.47;100.00;96709.34;4161175;28;20128;-73
2023/04/01 04:42:38;;;;;;;2.92;0.90;;;;;;;7.50;100.00;96714.06;4160264;28;20386;-73
2023/04/01 04:44:39;;;;;;;1.15;0.80;;;;;;;7.52;100.00;96706.97;4162044;28;20044;-73
2023/04/01 04:46:40;;;;;;;1.88;0.90;;;;;;;7.53;100.00;96713.25;4160659;28;20037;-73
2023/04/01 04:48:41;;;;;;;2.90;0.73;;;;;;;7.54;100.00;96714.84;4160841;28;20124;-73
2023/04/01 04:50:42;;;;;;;1.15;0.90;;;;;;;7.52;100.00;96717.19;4161441;28;20045;-73
2023/04/01 04:52:42;;;;;;;3.42;0.93;;;;;;;7.53;100.00;96721.50;4160093;28;20056;-73
2023/04/01 04:54:42;;;;;;;1.95;0.90;;;;;;;7.53;100.00;96718.75;4161422;28;20041;-73
2023/04/01 04:56:42;;;;;;;2.63;0.85;;;;;;;7.60;100.00;96722.25;4160453;28;21093;-73
2023/04/01 04:58:43;;;;;;;0.90;0.90;;;;;;;7.60;100.00;96724.22;4165757;28;20029;-73
2023/04/01 05:00:44;;;;;;;1.88;1.05;;;;;;;7.55;100.00;96719.16;4160515;28;20485;-73
2023/04/01 05:02:44;;;;;;;2.20;0.80;;;;;;;7.57;100.00;96720.31;4159618;28;20624;-73
2023/04/01 05:04:45;;;;;;;2.30;0.90;;;;;;;7.58;100.00;96718.34;4144305;28;20106;-73
2023/04/01 05:06:45;;;;;;;1.00;0.70;;;;;;;7.54;100.00;96714.84;4160387;28;20045;-73
2023/04/01 05:08:46;;;;;;;0.70;0.70;;;;;;;7.53;100.00;96719.56;4159818;28;20041;-73
2023/04/01 05:10:46;;;;;;;1.90;0.80;;;;;;;7.53;100.00;96716.00;4160695;28;20044;-73
2023/04/01 05:12:46;;;;;;;1.50;0.88;;;;;;;7.51;100.00;96721.13;4159963;28;20072;-73
2023/04/01 05:14:47;;;;;;;2.67;1.00;;;;;;;7.50;100.00;96725.06;4158957;28;20056;-73
2023/04/01 05:16:47;;;;;;;0.75;0.70;;;;;;;7.53;100.00;96716.00;4162634;28;20120;-73
2023/04/01 05:18:47;;;;;;;0.98;0.73;;;;;;;7.62;100.00;96726.59;4159290;28;20049;-73
2023/04/01 05:20:52;;;;;;;1.38;0.68;;;;;;;7.56;100.00;96718.75;4159999;28;20041;-73
2023/04/01 05:22:56;;;;;;;2.53;0.80;;;;;;;7.56;100.00;96710.50;4159785;28;20152;-73
2023/04/01 05:24:57;;;;;;;0.82;0.75;;;;;;;7.55;100.00;96719.94;4160069;28;20077;-73
2023/04/01 05:26:58;;;;;;;2.08;0.90;;;;;;;7.51;100.00;96719.16;4160297;28;20045;-73
2023/04/01 05:28:58;;;;;;;2.35;0.90;;;;;;;7.49;100.00;96724.28;4160186;28;20096;-73
2023/04/01 05:31:00;;;;;;;1.30;0.77;;;;;;;7.53;100.00;96716.81;4161028;28;20037;-73
2023/04/01 05:33:00;;;;;;;1.55;0.93;;;;;;;7.56;100.00;96727.00;4158065;28;20060;-73
2023/04/01 05:35:01;;;;;;;0.85;0.70;;;;;;;7.51;100.00;96726.63;4159721;28;20493;-73
2023/04/01 05:37:01;;;;;;;0.80;0.80;;;;;;;7.55;100.00;96730.16;4159699;28;20098;-73
2023/04/01 05:39:03;;;;;;;1.38;1.08;;;;;;;7.52;100.00;96722.69;4160833;28;20503;-73
2023/04/01 05:41:03;;;;;;;0.70;0.70;;;;;;;7.55;100.00;96730.94;4160481;28;20635;-73
2023/04/01 05:43:04;;;;;;;1.98;0.90;;;;;;;7.57;100.00;96734.06;4158745;28;20072;-73
2023/04/01 05:45:05;;;;;;;1.45;0.80;;;;;;;7.55;100.00;96736.44;4160294;28;20099;-73
2023/04/01 05:47:05;;;;;;;1.10;0.70;;;;;;;7.71;100.00;96729.69;4160003;28;20441;-73
2023/04/01 05:49:05;;;;;;;0.95;0.77;;;;;;;7.73;100.00;96730.84;4160185;28;20052;-73
2023/04/01 05:51:05;;;;;;;1.20;0.73;;;;;;;7.74;100.00;96724.16;4166219;28;20512;-73
2023/04/01 05:53:06;;;;;;;2.65;0.90;;;;;;;7.74;100.00;96735.16;4157903;28;20053;-73
2023/04/01 05:55:06;;;;;;;2.45;0.80;;;;;;;7.79;100.00;96736.72;4159924;28;20057;-73
2023/04/01 05:57:07;;;;;;;1.95;0.75;;;;;;;7.79;100.00;96736.72;4162934;28;20042;-73
2023/04/01 05:59:10;;;;;;;1.25;0.70;;;;;;;7.83;100.00;96734.72;4158836;28;20072;-73
2023/04/01 06:01:11;;;;;;;1.75;1.00;;;;;;;7.86;100.00;96740.22;4160096;28;20553;-73
2023/04/01 06:03:11;;;;;;;2.97;1.50;;;;;;;7.91;100.00;96740.97;4160600;28;20079;-73
2023/04/01 06:05:17;;;;;;;3.33;1.55;;;;;;;8.01;100.00;96740.13;4160129;28;20128;-73
2023/04/01 06:07:18;;;;;;;2.15;0.90;;;;;;;8.07;100.00;96738.50;4159561;28;20195;-73
2023/04/01 06:09:23;;;;;;;1.70;0.90;;;;;;;8.09;100.00;96742.41;4159722;28;20085;-73
2023/04/01 06:11:36;;;;;;;1.20;1.08;;;;;;;8.15;100.00;96740.81;4159787;28;20045;-73
2023/04/01 06:14:06;;;;;;;1.25;0.70;;;;;;;8.18;100.00;96742.75;4158071;28;20049;-73
2023/04/01 06:16:39;;;;;;;2.38;1.02;;;;;;;8.23;100.00;96740.78;4159471;28;20053;-73
2023/04/01 06:18:52;;;;;;;1.83;0.63;;;;;;;8.35;100.00;96746.59;4160206;28;20211;-73
2023/04/01 06:21:07;;;;;;;1.60;1.15;;;;;;;8.39;100.00;96747.38;4160172;28;20040;-73
2023/04/01 06:23:14;;;;;;;1.48;0.70;;;;;;;8.48;100.00;96754.38;4158533;28;20041;-73
2023/04/01 06:25:36;;;;;;;2.15;0.80;;;;;;;8.54;100.00;96752.78;4161521;28;20428;-73
2023/04/01 06:27:43;;;;;;;1.02;0.70;;;;;;;8.55;100.00;96751.59;4160245;28;20102;-73
2023/04/01 06:30:10;;;;;;;0.68;0.60;;;;;;;8.60;100.00;96751.13;4162779;28;20461;-73
2023/04/01 06:32:41;;;;;;;1.20;0.77;;;;;;;8.63;100.00;96747.56;4159827;28;20148;-73
2023/04/01 06:35:00;;;;;;;1.33;0.80;;;;;;;8.62;100.00;96751.53;4162567;28;20274;-73
2023/04/01 06:37:03;;;;;;;0.93;0.73;;;;;;;8.62;100.00;96751.53;4159194;28;20033;-73
2023/04/01 06:39:25;;;;;;;2.75;0.75;;;;;;;8.63;100.00;96750.34;4160314;28;20409;-73
2023/04/01 06:41:35;;;;;;;1.38;0.90;;;;;;;8.64;100.00;96749.13;4076367;28;20116;-73
2023/04/01 06:43:55;;;;;;;1.42;0.80;;;;;;;8.71;100.00;96752.63;4168658;28;20378;-73
2023/04/01 06:46:00;;;;;;;1.95;0.70;;;;;;;8.73;100.00;96753.00;4163863;28;20482;-73
2023/04/01 06:48:07;;;;;;;2.03;0.70;;;;;;;8.73;100.00;96754.97;4162119;28;20052;-73
2023/04/01 06:50:16;;;;;;;1.30;0.63;;;;;;;8.71;100.00;96751.84;4163009;28;20067;-73
2023/04/01 06:52:46;;;;;;;1.75;0.70;;;;;;;8.73;100.00;96752.22;4165486;28;20034;-73
2023/04/01 06:55:03;;;;;;;1.73;0.65;;;;;;;8.77;100.00;96749.41;4164899;28;20470;-73
2023/04/01 06:57:21;;;;;;;0.80;0.80;;;;;;;8.84;100.00;96754.84;4165779;28;20072;-73
2023/04/01 06:59:27;;;;;;;0.63;0.63;;;;;;;8.83;100.00;96745.03;4165822;28;20084;-73
2023/04/01 07:01:31;;;;;;;3.50;1.05;;;;;;;8.80;100.00;96749.38;4164492;28;20478;-73
2023/04/01 07:03:47;;;;;;;3.58;0.73;;;;;;;8.79;100.00;96747.81;4162109;28;20875;-73
2023/04/01 07:05:47;;;;;;;1.17;0.60;;;;;;;8.74;100.00;96748.25;4162100;28;20044;-73
2023/04/01 07:07:53;;;;;;;1.25;0.77;;;;;;;8.75;100.00;96749.03;4161263;28;20045;-73
2023/04/01 07:10:01;;;;;;;1.85;0.63;;;;;;;8.74;100.00;96762.03;4162156;28;20349;-73
2023/04/01 07:12:10;;;;;;;0.70;0.70;;;;;;;8.73;100.00;96752.22;4163051;28;20429;-73
2023/04/01 07:14:25;;;;;;;1.55;0.73;;;;;;;8.69;100.00;96760.53;4161340;28;20163;-73
2023/04/01 07:16:32;;;;;;;1.45;0.80;;;;;;;8.62;100.00;96755.06;4162853;28;20045;-73
2023/04/01 07:18:42;;;;;;;1.95;0.63;;;;;;;8.60;100.00;96751.13;4161804;28;20096;-73
2023/04/01 07:20:42;;;;;;;2.13;0.90;;;;;;;8.61;100.00;96764.53;4161720;28;20277;-73
2023/04/01 07:22:46;;;;;;;2.42;0.80;;;;;;;8.57;100.00;96762.97;4161256;28;20497;-73
2023/04/01 07:24:47;;;;;;;2.42;0.80;;;;;;;8.52;100.00;96755.91;4163885;28;20049;-73
2023/04/01 07:26:52;;;;;;;4.32;0.70;;;;;;;8.54;100.00;96752.78;4161407;28;20130;-73
2023/04/01 07:28:53;;;;;;;1.73;0.80;;;;;;;8.52;100.00;96749.63;4163779;28;20033;-73
2023/04/01 07:31:03;;;;;;;0.90;0.75;;;;;;;8.56;100.00;96759.44;4160904;28;20057;-73
2023/04/01 07:33:11;;;;;;;0.85;0.77;;;;;;;8.57;100.00;96757.47;4160944;28;20100;-73
2023/04/01 07:35:24;;;;;;;0.70;0.70;;;;;;;8.59;100.00;96752.31;4162520;28;20108;-73
2023/04/01 07:37:46;;;;;;;3.17;0.70;;;;;;;8.62;100.00;96762.56;4163495;28;20129;-73
2023/04/01 07:40:43;;;;;;;2.88;0.80;;;;;;;8.67;100.00;96762.09;4161335;28;20049;-73
2023/04/01 07:42:54;;;;;;;2.63;0.93;;;;;;;8.70;100.00;96766.81;4160003;28;20099;-73
2023/04/01 07:45:05;;;;;;;2.95;0.73;;;;;;;8.77;100.00;96766.75;4161425;28;20044;-73
2023/04/01 07:47:16;;;;;;;2.42;1.25;;;;;;;8.85;100.00;96761.94;4162434;28;20049;-73
2023/04/01 07:49:39;;;;;;;1.20;0.70;;;;;;;8.90;100.00;96767.81;4163770;28;20045;-73
2023/04/01 07:51:53;;;;;;;2.47;0.80;;;;;;;8.96;100.00;96770.91;4162364;28;20045;-73
2023/04/01 07:54:10;;;;;;;1.48;0.70;;;;;;;8.99;100.00;96770.88;4160390;28;20045;-73
2023/04/01 07:56:22;;;;;;;1.52;0.50;;;;;;;8.98;100.00;96763.78;4161320;28;20057;-73
2023/04/01 07:58:40;;;;;;;0.85;0.77;;;;;;;8.97;100.00;96767.75;4161144;28;20037;-73
2023/04/01 08:00:55;;;;;;;0.90;0.70;;;;;;;9.02;100.00;96769.28;4161971;28;20048;-73
2023/04/01 08:03:11;;;;;;;2.60;0.77;;;;;;;9.04;100.00;96775.16;4161534;28;20049;-73
2023/04/01 08:05:27;;;;;;;0.70;0.70;;;;;;;9.05;100.00;96776.72;4160853;28;20041;-73
2023/04/01 08:07:48;;;;;;;1.15;0.70;;;;;;;9.07;100.00;96776.31;4161382;28;20110;-73
2023/04/01 08:10:29;;;;;;;1.25;0.75;;;;;;;9.08;100.00;96784.19;4162161;28;20080;-73
2023/04/01 08:12:39;;;;;;;2.17;0.90;;;;;;;9.08;100.00;96783.41;4161399;28;20079;-73
2023/04/01 08:14:55;;;;;;;1.30;0.70;;;;;;;9.07;100.00;96779.84;4161866;28;20182;-73
2023/04/01 08:17:09;;;;;;;1.20;0.70;;;;;;;9.06;100.00;96783.81;4160991;28;20053;-73
2023/04/01 08:19:28;;;;;;;0.82;0.65;;;;;;;9.13;100.00;96791.25;4164720;28;20469;-73
2023/04/01 08:21:47;;;;;;;1.40;0.55;;;;;;;9.11;100.00;96791.66;4162970;28;20041;-73
2023/04/01 08:23:51;;;;;;;2.15;0.70;;;;;;;9.15;100.00;96788.84;4160456;28;20029;-73
2023/04/01 08:26:10;;;;;;;2.08;0.80;;;;;;;9.18;100.00;96794.31;4160731;28;20053;-73
2023/04/01 08:28:52;;;;;;;1.02;0.60;;;;;;;9.27;100.00;96788.34;4160391;28;20068;-73
2023/04/01 08:30:56;;;;;;;1.17;0.95;;;;;;;9.28;100.00;96793.44;4161452;28;20060;-73
2023/04/01 08:33:21;;;;;;;1.88;1.05;;;;;;;9.33;100.00;96794.19;4160290;28;20389;-73
2023/04/01 08:35:38;;;;;;;1.35;0.80;;;;;;;9.36;100.00;96802.44;4166256;28;20470;-73
2023/04/01 08:37:41;;;;;;;1.65;0.80;;;;;;;9.40;100.00;96794.91;4161055;28;20068;-73
2023/04/01 08:39:45;;;;;;;0.80;0.60;;;;;;;9.37;100.00;96789.44;4165446;28;20113;-73
2023/04/01 08:41:57;;;;;;;1.88;0.80;;;;;;;9.40;100.00;96800.41;4160627;28;20042;-73
2023/04/01 08:44:25;;;;;;;1.85;0.73;;;;;;;9.42;100.00;96794.47;4160274;28;20088;-73
2023/04/01 08:46:55;;;;;;;1.35;0.70;;;;;;;9.40;100.00;96800.41;4161781;28;20080;-73
2023/04/01 08:49:17;;;;;;;1.50;0.70;;;;;;;9.45;100.00;96797.22;4160728;28;20050;-73
2023/04/01 08:51:29;;;;;;;2.05;0.60;;;;;;;9.43;100.00;96796.03;4159830;28;20519;-74
2023/04/01 08:53:51;;;;;;;1.45;0.55;;;;;;;9.45;100.00;96799.19;4159875;28;20084;-73
2023/04/01 08:56:13;;;;;;;1.52;0.73;;;;;;;9.37;100.00;96794.94;4162425;28;20387;-73
2023/04/01 08:58:42;;;;;;;0.98;0.60;;;;;;;9.28;100.00;96790.69;4160667;28;20051;-73
2023/04/01 09:00:57;;;;;;;1.25;0.60;;;;;;;9.36;100.00;96799.69;4160685;28;20366;-73
2023/04/01 09:03:25;;;;;;;1.83;0.80;;;;;;;9.39;100.00;96796.09;4161182;28;20127;-73
2023/04/01 09:05:53;;;;;;;2.03;0.60;;;;;;;9.40;100.00;96799.63;4159734;28;20059;-73
2023/04/01 09:08:36;;;;;;;2.05;0.60;;;;;;;9.39;100.00;96798.06;4158307;28;20156;-73
2023/04/01 09:10:48;;;;;;;8.88;2.92;;;;;;;9.42;100.00;96806.31;4160061;28;20041;-73
2023/04/01 09:13:07;;;;;;;5.32;2.30;;;;;;;9.38;100.00;96799.28;4159028;28;20041;-73
2023/04/01 09:15:20;;;;;;;7.03;2.58;;;;;;;9.49;100.00;96802.69;4161569;28;20092;-73
2023/04/01 09:17:20;;;;;;;3.33;1.63;;;;;;;9.52;100.00;96799.13;4161921;28;20060;-73
2023/04/01 09:19:44;;;;;;;2.63;1.20;;;;;;;9.54;100.00;96800.28;4163608;28;20058;-73
2023/04/01 09:22:04;;;;;;;2.50;1.38;;;;;;;9.58;100.00;96795.47;4159849;28;20513;-73
2023/04/01 09:24:43;;;;;;;4.47;2.67;;;;;;;9.72;100.00;96799.28;4160583;28;20091;-74
2023/04/01 09:26:53;;;;;;;2.58;1.55;;;;;;;9.80;100.00;96803.53;4157368;28;20164;-73
2023/04/01 09:29:02;;;;;;;8.82;4.35;;;;;;;9.84;100.00;96807.78;4160225;28;20052;-73
2023/04/01 09:31:27;;;;;;;6.18;2.65;;;;;;;9.99;100.00;96808.41;4166708;28;20481;-74
2023/04/01 09:33:52;;;;;;;3.80;1.88;;;;;;;10.09;100.00;96801.97;4159615;28;20063;-73
2023/04/01 09:35:55;;;;;;;9.43;4.32;;;;;;;10.30;100.00;96802.88;4159961;28;20076;-74
2023/04/01 09:38:40;;;;;;;14.35;5.47;;;;;;;10.38;100.00;96807.13;4159540;28;20103;-73
2023/04/01 09:40:55;;;;;;;4.03;1.75;;;;;;;10.43;100.00;96812.19;4160769;28;20041;-73
2023/04/01 09:43:24;;;;;;;7.38;3.08;;;;;;;10.46;99.72;96811.34;4157965;28;20128;-73
2023/04/01 09:45:56;;;;;;;6.55;2.13;;;;;;;10.44;99.10;96812.97;4175176;28;20178;-73
2023/04/01 09:48:08;;;;;;;3.63;1.60;;;;;;;10.44;99.50;96818.50;4160286;28;20059;-73
2023/04/01 09:50:18;;;;;;;4.75;2.00;;;;;;;10.44;98.55;96819.28;4160268;28;20060;-73
2023/04/01 09:52:41;;;;;;;2.05;1.40;;;;;;;10.47;100.00;96818.44;4160774;28;20037;-73
2023/04/01 09:54:58;;;;;;;6.78;2.15;;;;;;;10.42;99.38;96821.66;4158714;28;20041;-73
2023/04/01 09:57:35;;;;;;;5.03;1.50;;;;;;;10.31;99.60;96824.56;4158569;28;20033;-73
2023/04/01 09:59:45;;;;;;;1.73;1.10;;;;;;;10.30;100.00;96823.03;4159389;28;20642;-73
2023/04/01 10:01:54;;;;;;;1.95;0.93;;;;;;;10.29;100.00;96824.22;4159531;28;20083;-73